Time;durP1;ratioP1;P1;durP2;ratioP2;P2;SDS_P1;SDS_P2;PMS_P1;PMS_P2;Temp;Humidity;BMP_temperature;BMP_pressure;BME280_temperature;BME280_humidity;BME280_pressure;Samples;Min_cycle;Max_cycle;Signal;HPM_P1;HPM_P2
2022/01/12 00:02:14;;;;;;;5.07;1.40;;;;;;;-10.42;58.52;101081.25;5053164;28;20409;-65
2022/01/12 00:04:40;;;;;;;4.60;1.50;;;;;;;-10.36;58.40;101084.00;5053132;28;20442;-63
2022/01/12 00:07:06;;;;;;;4.95;1.65;;;;;;;-10.38;58.35;101078.75;5053512;28;20021;-64
2022/01/12 00:09:31;;;;;;;3.85;1.23;;;;;;;-10.36;58.35;101084.00;5052763;28;20099;-63
2022/01/12 00:11:59;;;;;;;2.58;1.40;;;;;;;-10.39;58.35;101076.13;5053147;28;20017;-62
2022/01/12 00:14:27;;;;;;;2.95;1.55;;;;;;;-10.31;58.68;101087.56;5053413;28;20029;-64
2022/01/12 00:16:58;;;;;;;5.18;1.50;;;;;;;-10.35;58.57;101077.09;5052866;28;20032;-64
2022/01/12 00:19:24;;;;;;;4.18;1.60;;;;;;;-10.58;58.45;101042.06;5052599;28;20083;-64
2022/01/12 00:21:49;;;;;;;4.95;1.60;;;;;;;-10.38;58.42;101085.63;5053187;28;20319;-63
2022/01/12 00:24:15;;;;;;;4.32;1.65;;;;;;;-10.36;58.66;101096.94;5052902;28;20021;-64
2022/01/12 00:33:07;;;;;;;3.90;1.70;;;;;;;-10.55;58.57;101054.16;5051590;28;20108;-65
2022/01/12 00:34:54;;;;;;;4.47;1.30;;;;;;;-10.26;58.51;101095.44;5052580;28;20028;-64
2022/01/12 00:37:20;;;;;;;3.15;1.13;;;;;;;-10.42;58.09;101065.72;5052704;28;20250;-63
2022/01/12 00:39:45;;;;;;;2.75;1.50;;;;;;;-10.31;58.23;101091.84;5052869;28;20017;-64
2022/01/12 00:42:13;;;;;;;5.30;1.67;;;;;;;-10.39;58.09;101095.13;5052693;28;20016;-62
2022/01/12 00:44:44;;;;;;;4.18;1.20;;;;;;;-10.50;57.99;101094.00;5052313;28;20079;-63
2022/01/12 00:47:11;;;;;;;2.58;1.00;;;;;;;-10.49;58.31;101094.88;5052263;28;20165;-63
2022/01/12 00:49:36;;;;;;;3.60;1.33;;;;;;;-10.63;58.73;101077.25;5052737;28;20374;-65
2022/01/12 00:52:03;;;;;;;2.55;1.40;;;;;;;-10.70;58.40;101084.00;5052803;28;20047;-63
2022/01/12 00:54:28;;;;;;;3.90;1.58;;;;;;;-10.72;58.35;101087.38;5052067;28;20037;-63
2022/01/12 00:56:54;;;;;;;3.65;1.48;;;;;;;-10.83;58.27;101092.25;5052179;28;20087;-64
2022/01/12 00:59:20;;;;;;;1.52;0.65;;;;;;;-10.65;58.32;101089.28;5052567;28;20035;-65
2022/01/12 01:01:45;;;;;;;2.45;1.40;;;;;;;-10.79;58.35;101090.66;5052462;28;20045;-64
2022/01/12 01:04:11;;;;;;;3.70;1.50;;;;;;;-10.93;58.55;101069.56;5051034;28;20025;-63
2022/01/12 01:06:37;;;;;;;4.00;1.63;;;;;;;-10.88;58.49;101076.59;5052091;28;20154;-64
2022/01/12 01:09:04;;;;;;;8.70;1.40;;;;;;;-10.96;58.75;101068.66;5052796;28;20104;-63
2022/01/12 01:11:30;;;;;;;4.13;1.30;;;;;;;-10.82;58.97;101081.97;5068148;28;20473;-64
2022/01/12 01:13:58;;;;;;;3.17;1.40;;;;;;;-10.82;58.67;101074.22;5083904;28;20082;-63
2022/01/12 01:27:05;;;;;;;2.83;1.13;;;;;;;-10.77;58.31;101058.78;5051672;28;20029;-64
2022/01/12 01:29:31;;;;;;;2.83;1.50;;;;;;;-10.75;58.26;101083.00;5052184;28;20052;-63
2022/01/12 01:31:57;;;;;;;2.50;1.17;;;;;;;-10.79;58.25;101082.88;5051515;28;20516;-64
2022/01/12 01:34:23;;;;;;;3.03;1.35;;;;;;;-11.03;58.71;101043.44;5049980;28;20406;-63
2022/01/12 01:36:54;;;;;;;1.90;1.10;;;;;;;-10.83;58.26;101077.63;5051262;28;20032;-62
2022/01/12 01:39:25;;;;;;;3.22;1.33;;;;;;;-10.83;58.31;101077.63;5051201;28;20036;-65
2022/01/12 01:41:59;;;;;;;2.03;1.02;;;;;;;-10.82;58.75;101081.09;5051457;28;20044;-64
2022/01/12 01:55:06;;;;;;;3.15;1.65;;;;;;;-10.87;58.66;101075.78;5051587;28;20094;-63
2022/01/12 01:57:32;;;;;;;3.75;1.55;;;;;;;-10.90;59.47;101073.09;5050829;28;20029;-63
2022/01/12 01:59:58;;;;;;;3.85;1.30;;;;;;;-10.91;58.62;101054.97;5051647;28;20373;-63
2022/01/12 02:02:24;;;;;;;4.15;1.45;;;;;;;-10.89;58.99;101068.81;5053710;28;20025;-63
2022/01/12 02:04:50;;;;;;;3.00;1.20;;;;;;;-11.02;59.13;101037.44;5049512;28;20348;-62
2022/01/12 02:07:15;;;;;;;3.00;1.45;;;;;;;-10.82;59.31;101062.97;5050819;28;20032;-64
2022/01/12 02:09:41;;;;;;;3.78;1.77;;;;;;;-10.98;58.98;101023.75;5051260;28;20035;-64
2022/01/12 02:12:07;;;;;;;4.55;1.65;;;;;;;-10.74;58.79;101052.84;5032625;28;20028;-66
2022/01/12 02:14:34;;;;;;;3.35;1.70;;;;;;;-10.87;58.66;101046.44;5050450;28;20051;-64
2022/01/12 02:17:08;;;;;;;4.68;1.40;;;;;;;-10.82;59.00;101056.09;5050990;28;20082;-63
2022/01/12 02:41:21;;;;;;;5.85;1.63;;;;;;;-10.76;58.58;101032.06;5050610;28;20028;-63
2022/01/12 02:54:48;;;;;;;5.47;2.03;;;;;;;-10.96;58.85;101032.44;5049740;28;20028;-63
2022/01/12 02:57:15;;;;;;;5.03;2.15;;;;;;;-10.93;58.59;101039.41;5050856;28;20025;-63
2022/01/12 02:59:59;;;;;;;9.07;2.10;;;;;;;-10.97;58.48;101024.63;5050261;28;20028;-64
2022/01/12 03:02:39;;;;;;;8.93;2.10;;;;;;;-10.88;58.63;101022.28;5050165;28;20064;-63
2022/01/12 03:07:37;;;;;;;4.93;2.03;;;;;;;-10.91;58.65;101024.78;5050609;28;20104;-63
2022/01/12 03:10:07;;;;;;;4.63;2.25;;;;;;;-11.12;58.49;100983.72;5050205;28;20115;-64
2022/01/12 03:12:36;;;;;;;7.70;2.60;;;;;;;-10.80;58.32;101026.81;5049908;28;20036;-64
2022/01/12 03:15:02;;;;;;;7.65;2.33;;;;;;;-10.93;58.44;101029.03;5051843;28;20040;-62
2022/01/12 03:17:28;;;;;;;5.25;2.22;;;;;;;-10.96;58.70;101018.63;5051559;28;20021;-64
2022/01/12 03:19:54;;;;;;;4.63;2.22;;;;;;;-10.98;58.74;101028.06;5050392;28;20071;-64
2022/01/12 03:22:19;;;;;;;6.60;2.85;;;;;;;-10.98;58.46;101015.97;5050049;28;20021;-63
2022/01/12 03:24:45;;;;;;;5.75;2.45;;;;;;;-10.98;58.40;101026.31;5050841;28;20129;-63
2022/01/12 03:27:13;;;;;;;3.42;1.80;;;;;;;-11.02;58.65;101005.53;5065725;28;20029;-62
2022/01/12 03:29:42;;;;;;;5.28;2.30;;;;;;;-11.04;58.55;101008.06;5053926;28;20415;-64
2022/01/12 03:32:11;;;;;;;4.15;1.83;;;;;;;-11.01;58.67;101022.81;5086004;28;20361;-63
2022/01/12 03:34:39;;;;;;;4.70;2.28;;;;;;;-11.15;58.84;100983.63;5053573;28;20044;-64
2022/01/12 04:10:20;;;;;;;7.30;2.80;;;;;;;-10.93;58.23;101016.13;5054252;28;20060;-63
2022/01/12 04:12:46;;;;;;;5.60;2.20;;;;;;;-10.69;57.74;101021.06;5053260;28;20707;-62
2022/01/12 04:15:11;;;;;;;7.95;2.03;;;;;;;-11.13;58.67;100990.59;5053404;28;20054;-65
2022/01/12 04:17:37;;;;;;;4.90;2.17;;;;;;;-10.96;58.70;101018.63;5052793;28;20017;-62
2022/01/12 04:20:04;;;;;;;6.13;2.50;;;;;;;-10.94;58.79;101026.44;5052943;28;20024;-64
2022/01/12 04:25:14;;;;;;;5.97;2.00;;;;;;;-10.91;58.76;101023.94;5052910;28;20052;-64
2022/01/12 04:27:40;;;;;;;8.57;3.13;;;;;;;-10.92;58.45;101033.38;5052605;28;20028;-63
2022/01/12 04:30:06;;;;;;;5.32;2.20;;;;;;;-10.91;58.46;101029.09;5052781;28;20017;-63
2022/01/12 04:32:36;;;;;;;6.30;2.47;;;;;;;-10.91;58.48;101024.78;5053041;28;20108;-64
2022/01/12 04:35:02;;;;;;;4.85;2.33;;;;;;;-10.84;58.43;101029.31;5052184;28;20024;-65
2022/01/12 04:37:28;;;;;;;5.00;2.33;;;;;;;-11.07;58.69;101001.97;5052505;28;20508;-64
2022/01/12 04:39:54;;;;;;;4.10;2.13;;;;;;;-10.96;58.67;101034.16;5051628;28;20061;-65
2022/01/12 04:42:19;;;;;;;4.47;2.30;;;;;;;-10.97;58.92;101019.47;5053154;28;20029;-62
2022/01/12 04:44:47;;;;;;;4.93;2.00;;;;;;;-10.91;58.77;101024.78;5051245;28;20024;-63
2022/01/12 04:47:29;;;;;;;5.25;2.35;;;;;;;-10.88;58.75;101024.88;5052268;28;20029;-65
2022/01/12 04:49:56;;;;;;;5.05;2.20;;;;;;;-10.87;58.23;101016.25;5052395;28;20108;-63
2022/01/12 04:52:22;;;;;;;5.47;2.28;;;;;;;-10.92;58.82;101017.00;5052732;28;20087;-63
2022/01/12 04:54:48;;;;;;;3.65;1.38;;;;;;;-10.70;58.26;101028.78;5051895;28;20033;-64
2022/01/12 04:57:14;;;;;;;6.65;2.53;;;;;;;-10.79;58.38;101024.22;5052327;28;20021;-64
2022/01/12 04:59:52;;;;;;;5.50;2.50;;;;;;;-10.78;58.72;101025.13;5052469;28;20025;-64
2022/01/12 05:07:58;;;;;;;6.40;2.63;;;;;;;-10.87;58.51;101026.63;5051964;28;20017;-63
2022/01/12 05:12:57;;;;;;;6.75;2.70;;;;;;;-10.87;58.38;101026.63;5052100;28;20025;-65
2022/01/12 05:15:29;;;;;;;8.43;2.70;;;;;;;-10.96;58.08;101022.09;5051804;28;20459;-65
2022/01/12 05:17:55;;;;;;;6.90;2.83;;;;;;;-10.95;58.17;101025.53;5051694;28;20074;-63
2022/01/12 05:20:22;;;;;;;7.38;3.10;;;;;;;-10.98;58.34;101023.75;5052060;28;20032;-64
2022/01/12 05:22:48;;;;;;;6.07;2.92;;;;;;;-10.98;58.11;101028.06;5051891;28;20098;-64
2022/01/12 05:25:17;;;;;;;7.32;2.47;;;;;;;-10.98;58.54;101017.72;5051307;28;20040;-63
2022/01/12 05:27:43;;;;;;;7.78;2.95;;;;;;;-11.00;58.67;101014.22;5051393;28;20479;-63
2022/01/12 05:30:09;;;;;;;7.88;2.60;;;;;;;-10.93;58.62;101023.88;5051404;28;20029;-63
2022/01/12 05:32:34;;;;;;;3.10;1.30;;;;;;;-10.61;57.50;101023.84;5051577;28;20416;-64
2022/01/12 05:35:02;;;;;;;7.80;3.28;;;;;;;-11.15;57.23;100987.09;5051010;28;20021;-64
2022/01/12 05:37:29;;;;;;;8.27;3.58;;;;;;;-11.02;57.92;101026.22;5050723;28;20099;-64
2022/01/12 05:39:54;;;;;;;5.60;2.75;;;;;;;-11.18;58.14;101028.38;5051307;28;20418;-63
2022/01/12 05:42:20;;;;;;;5.75;2.22;;;;;;;-11.30;58.88;101004.78;5049578;28;20033;-63
2022/01/12 05:44:45;;;;;;;4.95;2.58;;;;;;;-11.13;58.38;101031.09;5050807;28;20109;-64
2022/01/12 05:47:29;;;;;;;5.05;2.25;;;;;;;-11.04;58.80;101023.59;5051114;28;20064;-63
2022/01/12 05:49:54;;;;;;;4.85;2.33;;;;;;;-10.99;58.34;101019.41;5050732;28;20072;-63
2022/01/12 05:52:20;;;;;;;11.13;3.10;;;;;;;-11.26;58.51;100988.53;5051224;28;20163;-65
2022/01/12 05:54:46;;;;;;;5.05;2.70;;;;;;;-11.22;58.22;100989.47;5051247;28;20045;-64
2022/01/12 05:57:12;;;;;;;4.43;1.77;;;;;;;-10.90;58.21;101036.03;5050839;28;20036;-64
2022/01/12 05:59:37;;;;;;;6.43;2.65;;;;;;;-11.04;58.13;101021.00;5049942;28;20363;-65
2022/01/12 06:02:03;;;;;;;7.95;2.58;;;;;;;-11.08;58.07;101018.31;5054797;28;20411;-65
2022/01/12 06:04:29;;;;;;;9.32;2.90;;;;;;;-11.27;57.88;101007.44;5050576;28;20028;-64
2022/01/12 06:06:56;;;;;;;7.70;2.08;;;;;;;-11.12;58.03;101020.78;5050705;28;20455;-64
2022/01/12 06:09:22;;;;;;;8.40;2.92;;;;;;;-11.07;58.07;101027.81;5051927;28;20032;-65
2022/01/12 06:11:48;;;;;;;6.00;2.65;;;;;;;-11.00;58.39;101027.13;5049319;28;20021;-65
2022/01/12 06:14:18;;;;;;;6.70;2.67;;;;;;;-10.95;58.24;101028.13;5050460;28;20043;-65
2022/01/12 06:16:44;;;;;;;7.10;2.83;;;;;;;-10.93;57.88;101035.94;5050283;28;20024;-63
2022/01/12 06:19:09;;;;;;;7.43;3.08;;;;;;;-10.94;57.90;101035.06;5051352;28;20028;-64
2022/01/12 06:21:35;;;;;;;7.50;2.85;;;;;;;-10.99;57.72;101026.31;5050866;28;20092;-66
2022/01/12 06:24:00;;;;;;;9.13;2.92;;;;;;;-10.91;57.70;101034.28;5050530;28;20023;-65
2022/01/12 06:26:27;;;;;;;7.38;3.38;;;;;;;-10.97;57.52;101033.28;5051628;28;20025;-65
2022/01/12 06:29:14;;;;;;;9.90;2.95;;;;;;;-11.03;57.63;101027.06;5051300;28;20063;-64
2022/01/12 06:31:44;;;;;;;6.50;2.83;;;;;;;-10.92;57.48;101050.63;5053967;28;20016;-63
2022/01/12 06:34:10;;;;;;;8.15;3.17;;;;;;;-10.92;57.33;101045.47;5068338;28;20032;-63
2022/01/12 06:36:36;;;;;;;6.22;2.92;;;;;;;-10.91;57.28;101048.06;5070965;28;20099;-63
2022/01/12 06:39:03;;;;;;;6.60;2.88;;;;;;;-10.91;57.11;101048.06;5070695;28;20319;-64
2022/01/12 06:41:28;;;;;;;9.52;2.53;;;;;;;-10.88;57.29;101034.34;5070421;28;20461;-65
2022/01/12 06:43:54;;;;;;;11.10;3.10;;;;;;;-10.82;57.53;101035.41;5070455;28;20111;-63
2022/01/12 06:46:24;;;;;;;6.93;2.10;;;;;;;-10.73;56.96;101031.28;5071406;28;20028;-64
2022/01/12 06:48:50;;;;;;;8.63;3.50;;;;;;;-10.63;56.67;101033.25;5070706;28;20462;-64
2022/01/12 06:51:16;;;;;;;6.07;3.15;;;;;;;-10.67;57.09;101028.84;5070037;28;20049;-65
2022/01/12 06:53:41;;;;;;;4.80;2.17;;;;;;;-10.58;57.28;101039.47;5070454;28;20430;-64
2022/01/12 06:56:08;;;;;;;5.32;3.13;;;;;;;-10.50;56.44;101028.41;5070993;28;20039;-65
2022/01/12 06:58:34;;;;;;;7.80;2.70;;;;;;;-10.49;56.16;101024.97;5070505;28;20567;-64
2022/01/12 07:01:00;;;;;;;7.93;3.17;;;;;;;-10.45;56.23;101025.09;5070221;28;20016;-63
2022/01/12 07:03:25;;;;;;;8.45;3.03;;;;;;;-10.41;56.37;101031.22;5072021;28;20036;-62
2022/01/12 07:05:51;;;;;;;12.52;4.53;;;;;;;-10.34;55.91;101027.94;5074831;28;20024;-64
2022/01/12 07:08:16;;;;;;;9.18;3.38;;;;;;;-10.22;56.07;101029.94;5074605;28;20099;-65
2022/01/12 07:10:42;;;;;;;8.40;3.60;;;;;;;-10.04;55.44;101032.09;5073809;28;20029;-65
2022/01/12 07:13:11;;;;;;;6.85;3.28;;;;;;;-9.90;55.03;101015.97;5073928;28;20033;-65
2022/01/12 07:15:41;;;;;;;6.35;2.97;;;;;;;-9.68;54.61;101030.28;5074741;28;20104;-64
2022/01/12 07:18:07;;;;;;;6.53;2.88;;;;;;;-9.50;54.19;101031.53;5073978;28;20032;-65
2022/01/12 07:20:33;;;;;;;6.00;2.45;;;;;;;-9.34;53.93;101038.75;5073829;28;20021;-65
2022/01/12 07:22:58;;;;;;;9.15;2.90;;;;;;;-9.17;53.61;101028.72;5074016;28;20070;-63
2022/01/12 07:25:24;;;;;;;7.32;3.45;;;;;;;-9.01;52.59;101036.81;5072260;28;20032;-65
2022/01/12 07:27:49;;;;;;;14.75;3.80;;;;;;;-9.00;52.53;101017.81;5073684;28;20031;-65
2022/01/12 07:30:15;;;;;;;6.78;3.28;;;;;;;-8.66;52.11;101040.06;5073926;28;20032;-63
2022/01/12 07:32:40;;;;;;;5.75;2.67;;;;;;;-8.46;51.81;101031.72;5073778;28;20054;-66
2022/01/12 07:35:06;;;;;;;6.85;2.78;;;;;;;-8.46;51.44;101039.50;5072946;28;20052;-64
2022/01/12 07:37:32;;;;;;;6.88;3.38;;;;;;;-8.44;51.79;101039.53;5073562;28;20142;-66
2022/01/12 07:39:58;;;;;;;5.70;2.72;;;;;;;-8.41;50.98;101042.19;5073642;28;20024;-64
2022/01/12 07:42:24;;;;;;;6.75;2.95;;;;;;;-8.89;52.04;101037.06;5072850;28;20036;-65
2022/01/12 07:44:50;;;;;;;6.25;3.30;;;;;;;-9.18;52.69;101036.50;5073506;28;20078;-65
2022/01/12 07:47:15;;;;;;;7.15;3.67;;;;;;;-9.25;52.90;101038.09;5073780;28;20056;-64
2022/01/12 07:49:41;;;;;;;7.75;3.17;;;;;;;-9.28;52.48;101031.13;5073491;28;20063;-65
2022/01/12 07:52:07;;;;;;;7.35;3.22;;;;;;;-9.16;52.54;101029.63;5073381;28;20067;-64
2022/01/12 07:54:32;;;;;;;8.77;3.35;;;;;;;-9.24;52.20;100985.34;5073470;28;20119;-65
2022/01/12 07:56:58;;;;;;;7.70;3.63;;;;;;;-8.89;51.86;101013.72;5073744;28;20027;-65
2022/01/12 07:59:24;;;;;;;7.25;3.35;;;;;;;-8.85;51.60;101009.44;5073663;28;20063;-63
2022/01/12 08:01:50;;;;;;;7.70;3.00;;;;;;;-8.93;51.20;100972.94;5073303;28;20414;-65
2022/01/12 08:04:16;;;;;;;12.65;3.33;;;;;;;-8.71;50.96;100994.09;5073843;28;20027;-65
2022/01/12 08:06:42;;;;;;;8.93;3.50;;;;;;;-8.70;51.32;100988.94;5073110;28;20056;-64
2022/01/12 08:09:07;;;;;;;6.85;3.15;;;;;;;-8.76;51.17;100996.63;5072892;28;20028;-65
2022/01/12 08:11:34;;;;;;;6.70;3.42;;;;;;;-8.77;51.29;100987.09;5072295;28;20031;-66
2022/01/12 08:13:59;;;;;;;9.75;3.60;;;;;;;-8.77;51.53;100983.59;5073138;28;20032;-66
2022/01/12 08:16:25;;;;;;;6.95;3.22;;;;;;;-8.83;50.77;100986.97;5072857;28;20112;-64
2022/01/12 08:18:50;;;;;;;10.65;3.70;;;;;;;-8.88;50.50;100983.41;5072905;28;20438;-66
2022/01/12 08:21:16;;;;;;;8.95;3.67;;;;;;;-9.07;51.16;100985.66;5073456;28;20036;-65
2022/01/12 08:23:41;;;;;;;11.35;4.10;;;;;;;-9.45;52.19;100991.88;5071993;28;20040;-64
2022/01/12 08:26:07;;;;;;;9.15;3.30;;;;;;;-9.58;52.49;100997.66;5073988;28;20055;-65
2022/01/12 08:28:34;;;;;;;7.45;3.78;;;;;;;-9.56;52.75;100986.47;5082779;28;20029;-65
2022/01/12 08:30:59;;;;;;;8.02;3.53;;;;;;;-9.43;52.50;100977.22;5083313;28;20016;-66
2022/01/12 08:33:26;;;;;;;9.45;3.45;;;;;;;-9.23;51.99;100988.00;5086881;28;20441;-64
2022/01/12 08:35:52;;;;;;;7.85;3.80;;;;;;;-9.11;51.37;100981.28;5092543;28;20456;-63
2022/01/12 08:38:17;;;;;;;8.90;3.85;;;;;;;-8.96;50.97;100976.38;5092829;28;20053;-63
2022/01/12 08:40:43;;;;;;;7.55;3.45;;;;;;;-8.98;51.57;100992.75;5093456;28;20353;-65
2022/01/12 08:43:08;;;;;;;7.20;3.55;;;;;;;-9.05;50.79;100988.31;5092058;28;20472;-65
2022/01/12 08:45:34;;;;;;;8.88;4.13;;;;;;;-9.06;50.60;100994.34;5092400;28;20168;-65
2022/01/12 08:48:00;;;;;;;8.23;3.38;;;;;;;-9.07;51.18;100990.84;5092581;28;20028;-64
2022/01/12 08:50:26;;;;;;;8.02;3.53;;;;;;;-9.00;51.06;100984.06;5067138;28;20021;-65
2022/01/12 08:52:51;;;;;;;10.20;4.28;;;;;;;-9.30;50.96;100946.34;5062360;28;20040;-66
2022/01/12 08:55:19;;;;;;;8.80;3.90;;;;;;;-9.09;50.65;100987.38;5071690;28;20476;-67
2022/01/12 08:57:45;;;;;;;9.35;3.95;;;;;;;-9.18;50.74;100974.22;5054783;28;20025;-63
2022/01/12 09:00:12;;;;;;;13.43;4.18;;;;;;;-9.22;50.58;100981.06;5052322;28;20454;-63
2022/01/12 09:02:39;;;;;;;8.80;3.40;;;;;;;-9.24;51.17;100981.06;5051177;28;20025;-70
2022/01/12 09:05:05;;;;;;;11.52;4.03;;;;;;;-9.11;50.88;100979.56;5051729;28;20104;-67
2022/01/12 09:07:31;;;;;;;6.93;3.47;;;;;;;-8.91;50.91;100980.78;5051489;28;20457;-67
2022/01/12 09:09:57;;;;;;;7.90;3.53;;;;;;;-8.74;50.30;100965.47;5069355;28;20035;-65
2022/01/12 09:12:22;;;;;;;8.07;3.92;;;;;;;-8.80;49.91;100961.06;5072108;28;20024;-67
2022/01/12 09:14:48;;;;;;;9.85;4.13;;;;;;;-8.86;49.66;100966.16;5071504;28;20173;-66
2022/01/12 09:17:17;;;;;;;9.73;4.05;;;;;;;-8.99;50.43;100963.34;5071587;28;20056;-63
2022/01/12 09:19:43;;;;;;;10.00;4.05;;;;;;;-9.04;50.63;100956.31;5071593;28;20035;-62
2022/01/12 09:22:09;;;;;;;13.35;4.45;;;;;;;-9.34;51.09;100949.72;5070326;28;20044;-65
2022/01/12 09:24:35;;;;;;;9.70;4.13;;;;;;;-9.41;51.50;100952.19;5070620;28;20346;-67
2022/01/12 09:27:00;;;;;;;9.32;4.13;;;;;;;-9.31;51.52;100952.38;5069661;28;20043;-67
2022/01/12 09:29:26;;;;;;;9.27;4.05;;;;;;;-9.23;51.23;100946.50;5069364;28;20027;-68
2022/01/12 09:31:51;;;;;;;11.50;4.35;;;;;;;-9.21;50.85;100941.31;5071454;28;20078;-67
2022/01/12 09:34:17;;;;;;;9.20;4.45;;;;;;;-9.16;51.15;100933.63;5071189;28;20020;-66
2022/01/12 09:36:42;;;;;;;9.80;4.30;;;;;;;-9.07;50.78;100935.50;5071927;28;20401;-68
2022/01/12 09:39:09;;;;;;;10.57;4.63;;;;;;;-9.03;51.00;100930.41;5071226;28;20020;-68
2022/01/12 09:41:35;;;;;;;7.22;3.45;;;;;;;-8.96;51.01;100929.66;5071338;28;20574;-66
2022/01/12 09:44:02;;;;;;;10.43;4.20;;;;;;;-9.24;51.40;100920.50;5072091;28;20023;-68
2022/01/12 09:46:27;;;;;;;10.23;4.20;;;;;;;-9.47;51.20;100913.16;5071083;28;20020;-68
2022/01/12 09:48:54;;;;;;;8.80;4.10;;;;;;;-9.30;51.50;100930.78;5071401;28;20039;-68
2022/01/12 09:51:22;;;;;;;11.80;4.28;;;;;;;-9.23;51.64;100930.03;5071666;28;20041;-67
2022/01/12 09:53:48;;;;;;;9.88;4.30;;;;;;;-9.16;51.35;100928.44;5071267;28;20044;-68
2022/01/12 09:56:18;;;;;;;7.15;3.53;;;;;;;-9.19;51.27;100925.78;5071143;28;20051;-68
2022/01/12 09:58:44;;;;;;;8.55;3.58;;;;;;;-9.11;51.33;100930.28;5071541;28;20480;-66
2022/01/12 10:01:10;;;;;;;8.25;3.47;;;;;;;-9.04;51.44;100922.59;5070019;28;20046;-67
2022/01/12 10:03:36;;;;;;;9.65;3.80;;;;;;;-9.10;51.04;100924.25;5070873;28;20020;-66
2022/01/12 10:06:13;;;;;;;10.48;4.10;;;;;;;-9.14;51.38;100927.63;5071037;28;20412;-67
2022/01/12 10:08:39;;;;;;;7.40;4.05;;;;;;;-9.27;51.18;100907.50;5071287;28;20468;-67
2022/01/12 10:11:07;;;;;;;10.88;4.20;;;;;;;-9.24;50.99;100918.81;5064738;28;20020;-61
2022/01/12 10:13:36;;;;;;;7.40;3.35;;;;;;;-9.33;50.84;100907.38;5050592;28;20036;-66
2022/01/12 10:16:14;;;;;;;9.30;4.60;;;;;;;-9.51;51.36;100911.38;5058900;28;20025;-65
2022/01/12 10:18:45;;;;;;;14.15;4.95;;;;;;;-9.73;52.06;100908.34;5071155;28;20073;-66
2022/01/12 10:21:11;;;;;;;12.38;5.03;;;;;;;-9.92;52.24;100901.94;5070467;28;20480;-68
2022/01/12 10:23:39;;;;;;;12.38;4.80;;;;;;;-10.00;52.60;100896.59;5070908;28;20106;-66
2022/01/12 10:26:04;;;;;;;10.63;4.60;;;;;;;-10.10;52.73;100886.88;5071812;28;20082;-67
2022/01/12 10:28:30;;;;;;;12.40;4.80;;;;;;;-10.01;52.86;100901.72;5060915;28;20071;-67
2022/01/12 10:31:03;;;;;;;11.38;4.82;;;;;;;-9.98;52.59;100902.66;5050372;28;20401;-67
2022/01/12 10:33:31;;;;;;;13.75;5.68;;;;;;;-9.99;52.91;100908.69;5049332;28;20116;-67
2022/01/12 10:35:59;;;;;;;16.55;5.97;;;;;;;-9.99;52.48;100911.28;5051166;28;20065;-67
2022/01/12 10:38:26;;;;;;;14.48;5.10;;;;;;;-9.97;52.68;100899.25;5054783;28;20036;-68
2022/01/12 10:41:03;;;;;;;14.77;5.80;;;;;;;-10.07;52.35;100886.94;5058069;28;20035;-67
2022/01/12 10:43:40;;;;;;;10.05;4.13;;;;;;;-10.21;53.00;100873.72;5074394;28;20119;-67
2022/01/12 10:46:08;;;;;;;8.75;3.90;;;;;;;-10.15;52.63;100893.66;5075240;28;20036;-63
2022/01/12 10:48:44;;;;;;;10.20;4.40;;;;;;;-10.08;52.99;100900.75;5063352;28;20037;-68
2022/01/12 10:51:11;;;;;;;12.02;4.85;;;;;;;-10.11;52.60;100900.69;5053095;28;20048;-67
2022/01/12 10:53:37;;;;;;;10.15;3.90;;;;;;;-10.12;52.94;100901.53;5054382;28;20033;-64
2022/01/12 10:56:09;;;;;;;10.98;3.90;;;;;;;-10.12;52.96;100897.19;5055712;28;20032;-67
2022/01/12 10:58:40;;;;;;;10.35;3.72;;;;;;;-10.07;52.51;100893.81;5055671;28;20060;-67
2022/01/12 11:01:07;;;;;;;11.88;4.05;;;;;;;-10.38;52.92;100844.84;5054058;28;20029;-68
2022/01/12 11:03:33;;;;;;;9.57;3.92;;;;;;;-10.39;53.54;100856.03;5054466;28;20033;-68
2022/01/12 11:05:59;;;;;;;8.25;3.70;;;;;;;-10.24;53.58;100873.66;5052745;28;20028;-69
2022/01/12 11:08:26;;;;;;;9.65;4.07;;;;;;;-10.18;53.59;100871.19;5052312;28;20077;-68
2022/01/12 11:10:58;;;;;;;8.95;3.60;;;;;;;-10.12;53.27;100867.84;5053130;28;20450;-67
2022/01/12 11:13:26;;;;;;;6.70;2.92;;;;;;;-10.03;53.37;100862.84;5054176;28;20036;-69
2022/01/12 11:15:52;;;;;;;10.00;4.07;;;;;;;-10.01;53.00;100868.94;5054056;28;20363;-68
2022/01/12 11:18:25;;;;;;;9.75;3.97;;;;;;;-9.99;53.24;100859.47;5054027;28;20017;-67
2022/01/12 11:20:53;;;;;;;10.23;3.80;;;;;;;-9.95;52.97;100853.50;5053839;28;20024;-69
2022/01/12 11:23:19;;;;;;;8.98;4.28;;;;;;;-9.93;53.36;100857.84;5054077;28;20024;-68
2022/01/12 11:25:50;;;;;;;10.68;4.15;;;;;;;-9.90;53.42;100853.59;5071216;28;20042;-67
2022/01/12 11:28:19;;;;;;;7.88;3.60;;;;;;;-9.88;53.06;100846.72;5072282;28;20474;-67
2022/01/12 11:30:48;;;;;;;11.73;4.85;;;;;;;-9.88;53.14;100843.28;5073525;28;20028;-67
2022/01/12 11:33:14;;;;;;;17.70;6.07;;;;;;;-9.90;53.26;100838.06;5074031;28;20028;-67
2022/01/12 11:35:47;;;;;;;17.23;7.22;;;;;;;-9.93;53.15;100843.19;5073703;28;20035;-66
2022/01/12 11:38:34;;;;;;;15.65;5.82;;;;;;;-9.90;53.40;100831.97;5074145;28;20067;-68
2022/01/12 11:41:36;;;;;;;13.88;5.78;;;;;;;-9.91;53.62;100835.41;5074069;28;20028;-67
2022/01/12 11:44:05;;;;;;;11.93;4.63;;;;;;;-10.03;53.57;100836.94;5051565;28;20411;-68
2022/01/12 11:46:43;;;;;;;12.27;4.78;;;;;;;-10.02;53.40;100842.97;5070253;28;20044;-69
2022/01/12 11:49:08;;;;;;;17.67;6.13;;;;;;;-10.08;53.44;100838.56;5073351;28;20028;-66
2022/01/12 11:51:35;;;;;;;17.70;5.30;;;;;;;-10.13;53.57;100840.16;5073613;28;20136;-68
2022/01/12 11:54:30;;;;;;;9.50;4.03;;;;;;;-10.26;53.62;100829.56;5073821;28;20036;-68
2022/01/12 11:57:02;;;;;;;7.47;3.25;;;;;;;-10.22;54.01;100843.47;5067769;28;20049;-67
2022/01/12 11:59:30;;;;;;;11.23;4.13;;;;;;;-10.24;53.95;100835.66;5071941;28;20028;-69
2022/01/12 12:02:08;;;;;;;10.52;4.40;;;;;;;-10.25;53.97;100836.50;5073817;28;20020;-68
2022/01/12 12:04:35;;;;;;;7.60;3.38;;;;;;;-10.27;54.21;100833.00;5074202;28;20166;-69
2022/01/12 12:07:05;;;;;;;7.28;3.65;;;;;;;-10.30;54.18;100839.81;5073373;28;20025;-68
2022/01/12 12:09:43;;;;;;;9.68;4.25;;;;;;;-10.28;54.05;100831.25;5073545;28;20119;-66
2022/01/12 12:12:11;;;;;;;16.20;6.00;;;;;;;-10.45;54.49;100833.53;5073769;28;20437;-68
2022/01/12 12:14:36;;;;;;;9.13;4.30;;;;;;;-10.42;54.52;100830.13;5074208;28;20071;-68
2022/01/12 12:17:03;;;;;;;10.57;4.43;;;;;;;-10.60;54.42;100818.53;5073113;28;20121;-66
2022/01/12 12:19:30;;;;;;;8.88;4.07;;;;;;;-10.68;54.83;100814.91;5073096;28;20162;-68
2022/01/12 12:21:55;;;;;;;12.98;4.82;;;;;;;-10.79;54.96;100811.22;5073891;28;20016;-68
2022/01/12 12:24:21;;;;;;;11.50;4.60;;;;;;;-10.84;55.41;100819.75;5073562;28;20065;-68
2022/01/12 12:26:52;;;;;;;10.02;4.72;;;;;;;-10.88;55.24;100806.69;5072957;28;20127;-69
2022/01/12 12:29:25;;;;;;;10.00;4.43;;;;;;;-10.91;55.39;100807.47;5072815;28;20043;-68
2022/01/12 12:31:52;;;;;;;10.32;4.13;;;;;;;-10.97;55.71;100810.81;5073657;28;20020;-68
2022/01/12 12:34:22;;;;;;;11.90;5.18;;;;;;;-11.02;55.63;100808.97;5073136;28;20032;-67
2022/01/12 12:37:00;;;;;;;11.65;5.25;;;;;;;-11.27;55.58;100772.19;5073022;28;20028;-68
2022/01/12 12:39:33;;;;;;;12.40;5.25;;;;;;;-11.29;56.20;100769.53;5073027;28;20031;-68
2022/01/12 12:41:59;;;;;;;13.73;4.95;;;;;;;-11.16;56.02;100800.88;5073411;28;20021;-66
2022/01/12 12:44:27;;;;;;;14.82;5.22;;;;;;;-11.20;55.98;100794.75;5073330;28;20430;-68
2022/01/12 12:47:09;;;;;;;20.20;6.07;;;;;;;-11.29;55.88;100784.19;5072694;28;20052;-68
2022/01/12 12:49:46;;;;;;;21.08;6.47;;;;;;;-11.83;56.25;100713.97;5072667;28;20032;-68
2022/01/12 12:52:12;;;;;;;21.60;6.30;;;;;;;-11.62;56.53;100759.25;5073373;28;20051;-69
2022/01/12 12:54:43;;;;;;;19.30;5.68;;;;;;;-11.54;56.48;100791.34;5072745;28;20041;-68
2022/01/12 12:57:10;;;;;;;16.75;5.88;;;;;;;-11.61;56.85;100781.66;5072611;28;20139;-68
2022/01/12 12:59:36;;;;;;;13.27;5.22;;;;;;;-11.69;56.72;100784.94;5072274;28;20020;-68
2022/01/12 13:02:12;;;;;;;14.93;5.30;;;;;;;-11.73;56.75;100784.81;5072254;28;20104;-69
2022/01/12 13:04:38;;;;;;;12.52;5.05;;;;;;;-11.81;56.97;100779.47;5072142;28;20534;-68
2022/01/12 13:07:12;;;;;;;13.77;5.15;;;;;;;-11.87;56.94;100782.75;5071082;28;20036;-68